Island Park, ID

5:04 AM MDT on August 29, 2015 (GMT -0600)
Yellowstone | | Change Station
CLOSE
Current Station
Airport
Location: West Yellowstone,
Elevation: 6644 ft
Nearby Weather Stations
Active Advisory: Fire Weather Warning

Elev 6644 ft 44.69 °N, 111.12 °W | Updated 19 minutes ago

Partly Cloudy
Partly Cloudy
43 °F
Feels Like 43 °F
N
0
Wind Variable Wind from North

Today
High -- | Low -- °F
--% Chance of Precip.
Yesterday
High -- | Low -- °F
Precip. -- in
6:44 AM 8:07 PM
Full, 100% visible
Pressure 30.23 in
Visibility 10.0 miles
Clouds Clear
Dew Point 32 °F
Humidity 66%
Rainfall 0.00 in
Snow Depth Not available.
UV 0 out of 12
Pollen 8.70 out of 12
Air Quality Not available.
Flu Activity Not available.
METAR KWYS 291045Z AUTO 00000KT 10SM CLR 06/00 A3023 RMK AO2
Pressure 30.23 in
Visibility 10.0 miles
Clouds Clear
Dew Point 32 °F
Humidity 66%
Rainfall 0.00 in
Snow Depth Not available.
UV 0 out of 12
Pollen 8.70 out of 12
Air Quality Not available.
Flu Activity Not available.
METAR KWYS 291045Z AUTO 00000KT 10SM CLR 06/00 A3023 RMK AO2

10-Day Weather Forecast

×

Almanac

Astronomy

Aug. 29, 2015 Rise Set
Actual Time
Civil Twilight
Nautical Twilight
Astronomical Twilight
Moon
Length of Visible Light
Length of Day
Tomorrow will be .
, % of the Moon is Illuminated

Today's Extremes

State Highs State Lows

Community

WunderPhotos

Upload Photos

1,850,651 photos uploaded!

WunderBlogs® & News

Nearby

Air Quality

  Air Quality AQ Index Pollutant
Not available.

Snow Depth

Station Depth Elevation

Earthquake Activity

City Distance Mag. Time & Date
Minimum magnitude displayed is 2.5.

Coastal Water Temperatures

Place Temperature

Stations

Nearby Weather Stations

Station Location Temp. Windchill Dew Point Humidity Wind Precip. Elev Updated Type
                   
Fire Weather Warning
Statement as of 3:23 AM MDT on August 29, 2015

... Red flag warning remains in effect from noon today to 10 PM
MDT this evening for gusty winds and low humidity for southeast
Idaho fire weather zones 410 and 413 below 5000 feet...

* affected area... fire weather zone 410 and fire weather zone
413 below 5000 feet.

* Wind... south to southwest winds 20 to 30 mph with gusts up to
45 mph at mid and upper slopes. 15 to 25 mph with gusts up to
35 mph at lower elevations.

* Humidity... 15 to 25 percent.

* Thunderstorms... isolated thunderstorms are possible with
gusts over 45 mph.

* Impacts... any fires that develop will likely spread rapidly.
Outdoor burning is not recommended.

Precautionary/preparedness actions...

A red flag warning means that critical fire weather conditions
are either occurring now... or will shortly. Fires may experience
rapid rates of growth. Please advise the appropriate officials or
fire crews in the field of the red flag warning for portions of
southeast Idaho.